Time;durP1;ratioP1;P1;durP2;ratioP2;P2;SDS_P1;SDS_P2;PMS_P1;PMS_P2;Temp;Humidity;BMP_temperature;BMP_pressure;BME280_temperature;BME280_humidity;BME280_pressure;Samples;Min_cycle;Max_cycle;Signal;HPM_P1;HPM_P2
2021/11/04 00:01:04;;;;;;;10.85;4.05;;;20.00;99.90;;;;;;5089100;28;20539;-69
2021/11/04 00:03:31;;;;;;;7.30;3.22;;;20.10;99.90;;;;;;5090743;28;20024;-69
2021/11/04 00:05:58;;;;;;;8.95;5.03;;;20.20;99.90;;;;;;5089122;28;20024;-70
2021/11/04 00:08:25;;;;;;;7.97;3.15;;;20.30;99.90;;;;;;5089871;28;20016;-68
2021/11/04 00:10:53;;;;;;;9.80;3.00;;;20.30;99.90;;;;;;5066865;28;20062;-69
2021/11/04 00:13:21;;;;;;;9.18;2.90;;;20.30;99.90;;;;;;5090373;28;20104;-67
2021/11/04 00:15:48;;;;;;;8.93;3.00;;;20.40;99.90;;;;;;5090084;28;20547;-68
2021/11/04 00:18:15;;;;;;;8.02;3.28;;;20.40;99.90;;;;;;5092309;28;20508;-68
2021/11/04 00:20:42;;;;;;;7.70;3.35;;;20.50;99.90;;;;;;5095078;28;20028;-67
2021/11/04 00:23:09;;;;;;;8.85;4.53;;;20.50;99.90;;;;;;5095224;28;20028;-68
2021/11/04 00:25:36;;;;;;;10.40;5.20;;;20.70;99.90;;;;;;5092995;28;20027;-68
2021/11/04 00:28:03;;;;;;;11.77;3.75;;;20.70;99.90;;;;;;5093408;28;20023;-68
2021/11/04 00:30:30;;;;;;;8.00;3.88;;;20.70;99.90;;;;;;5070160;28;20024;-71
2021/11/04 00:32:57;;;;;;;8.40;3.55;;;20.70;99.90;;;;;;5093971;28;20051;-69
2021/11/04 00:35:25;;;;;;;12.50;4.40;;;20.70;99.90;;;;;;5094219;28;20028;-69
2021/11/04 00:37:53;;;;;;;9.50;3.70;;;20.80;99.90;;;;;;5093174;28;20030;-68
2021/11/04 00:40:23;;;;;;;9.57;3.92;;;20.70;99.90;;;;;;5092892;28;20023;-69
2021/11/04 00:42:50;;;;;;;10.52;3.92;;;20.80;99.90;;;;;;5090965;28;20032;-70
2021/11/04 00:45:17;;;;;;;6.88;3.88;;;20.80;99.90;;;;;;5093150;28;20280;-73
2021/11/04 00:47:44;;;;;;;9.00;4.55;;;20.90;99.90;;;;;;5092971;28;20035;-72
2021/11/04 00:50:11;;;;;;;11.20;4.72;;;20.80;99.90;;;;;;5069416;28;20039;-68
2021/11/04 00:52:38;;;;;;;10.57;4.68;;;20.90;99.90;;;;;;5090917;28;20019;-71
2021/11/04 00:55:07;;;;;;;9.52;4.60;;;20.80;99.90;;;;;;5091650;28;20043;-72
2021/11/04 00:57:34;;;;;;;12.38;4.10;;;20.90;99.90;;;;;;5092779;28;20530;-73
2021/11/04 01:00:01;;;;;;;10.68;4.88;;;20.90;99.90;;;;;;5093314;28;20024;-69
2021/11/04 01:02:28;;;;;;;10.85;4.85;;;21.00;99.90;;;;;;5093506;28;20008;-71
2021/11/04 01:04:55;;;;;;;7.95;4.03;;;21.10;99.90;;;;;;5092720;28;20028;-69
2021/11/04 01:07:22;;;;;;;10.60;4.03;;;21.20;99.90;;;;;;5093778;28;20035;-70
2021/11/04 01:09:49;;;;;;;7.15;3.83;;;21.20;99.90;;;;;;5094140;28;20016;-70
2021/11/04 01:12:16;;;;;;;6.60;3.22;;;21.40;99.90;;;;;;5092450;28;20042;-70
2021/11/04 01:14:45;;;;;;;11.50;6.07;;;21.70;99.90;;;;;;5092728;28;20456;-73
2021/11/04 01:17:12;;;;;;;6.78;2.90;;;21.70;99.90;;;;;;5092296;28;20044;-71
2021/11/04 01:19:39;;;;;;;8.40;2.92;;;21.70;99.90;;;;;;5092937;28;20020;-71
2021/11/04 01:22:06;;;;;;;7.65;4.32;;;21.60;99.90;;;;;;5092180;28;20025;-70
2021/11/04 01:24:33;;;;;;;11.80;3.85;;;21.80;99.90;;;;;;5091548;28;20438;-71
2021/11/04 01:27:01;;;;;;;9.30;3.53;;;21.80;99.90;;;;;;5092701;28;20031;-71
2021/11/04 01:29:28;;;;;;;8.05;3.45;;;22.00;99.90;;;;;;5092463;28;20024;-73
2021/11/04 01:31:55;;;;;;;11.57;4.50;;;22.20;99.90;;;;;;5092879;28;20012;-72
2021/11/04 01:34:22;;;;;;;11.60;4.55;;;22.20;99.90;;;;;;5090627;28;20473;-70
2021/11/04 01:36:49;;;;;;;7.10;3.50;;;22.20;99.90;;;;;;5091913;28;20035;-72
2021/11/04 01:39:16;;;;;;;7.32;4.28;;;22.20;99.90;;;;;;5091259;28;20100;-70
2021/11/04 01:41:43;;;;;;;10.48;4.47;;;22.00;99.90;;;;;;5092437;28;20020;-73
2021/11/04 01:44:10;;;;;;;7.82;3.00;;;22.10;99.90;;;;;;5092982;28;20020;-71
2021/11/04 01:46:37;;;;;;;7.95;3.80;;;22.30;99.90;;;;;;5092375;28;20493;-71
2021/11/04 01:49:04;;;;;;;6.57;3.30;;;22.10;99.90;;;;;;5091315;28;20024;-71
2021/11/04 01:51:31;;;;;;;9.48;4.35;;;22.00;99.90;;;;;;5090813;28;20042;-71
2021/11/04 01:53:58;;;;;;;9.13;3.22;;;21.90;99.90;;;;;;5090404;28;20458;-69
2021/11/04 01:56:25;;;;;;;8.48;3.53;;;22.00;99.90;;;;;;5092263;28;20434;-69
2021/11/04 01:58:53;;;;;;;8.13;3.78;;;22.00;99.90;;;;;;5092418;28;20532;-70
2021/11/04 02:01:22;;;;;;;11.55;3.80;;;22.00;99.90;;;;;;5091057;28;20039;-72
2021/11/04 02:04:08;;;;;;;10.23;3.92;;;21.90;99.90;;;;;;5086468;28;20069;-69
2021/11/04 02:06:50;;;;;;;7.57;3.53;;;21.80;99.90;;;;;;5090609;28;20020;-70
2021/11/04 02:09:26;;;;;;;10.50;5.10;;;22.00;99.90;;;;;;5085922;28;20402;-70
2021/11/04 02:12:02;;;;;;;12.65;5.45;;;22.10;99.90;;;;;;5090614;28;20390;-70
2021/11/04 02:14:45;;;;;;;7.05;5.05;;;22.10;99.90;;;;;;5091275;28;20608;-71
2021/11/04 02:17:15;;;;;;;8.57;3.85;;;22.20;99.90;;;;;;5091873;28;20032;-69
2021/11/04 02:20:00;;;;;;;8.73;4.75;;;22.20;99.90;;;;;;5091297;28;20016;-70
2021/11/04 02:22:52;;;;;;;12.70;4.88;;;22.10;99.90;;;;;;5091390;28;20028;-69
2021/11/04 02:25:29;;;;;;;64.80;11.60;;;21.90;99.90;;;;;;5067867;28;20068;-69
2021/11/04 02:28:00;;;;;;;70.82;11.70;;;22.00;99.90;;;;;;5089629;28;20028;-72
2021/11/04 02:30:29;;;;;;;31.60;6.70;;;22.10;99.90;;;;;;5090825;28;20269;-71
2021/11/04 02:32:57;;;;;;;8.45;4.03;;;22.10;99.90;;;;;;5088926;28;20702;-68
2021/11/04 02:35:25;;;;;;;10.07;3.85;;;22.10;99.90;;;;;;5096614;28;20035;-68
2021/11/04 02:37:53;;;;;;;9.23;4.18;;;22.00;99.90;;;;;;5091023;28;20024;-72
2021/11/04 02:40:22;;;;;;;6.55;3.70;;;21.90;99.90;;;;;;5090282;28;20049;-72
2021/11/04 02:42:50;;;;;;;7.10;4.43;;;21.90;99.90;;;;;;5090571;28;20104;-68
2021/11/04 02:45:21;;;;;;;11.93;6.18;;;21.80;99.90;;;;;;5090364;28;20039;-69
2021/11/04 02:47:48;;;;;;;8.13;4.85;;;21.80;99.90;;;;;;5090973;28;20064;-71
2021/11/04 02:50:18;;;;;;;10.80;5.75;;;22.10;99.90;;;;;;5066329;28;20491;-70
2021/11/04 02:52:45;;;;;;;8.75;5.65;;;22.10;99.90;;;;;;5089206;28;20022;-69
2021/11/04 02:55:12;;;;;;;13.60;8.60;;;22.00;99.90;;;;;;5088965;28;20046;-68
2021/11/04 02:57:49;;;;;;;11.35;8.57;;;21.80;99.90;;;;;;5087187;28;20085;-72
2021/11/04 03:00:18;;;;;;;9.48;6.30;;;21.70;99.90;;;;;;5088455;28;20119;-70
2021/11/04 03:02:45;;;;;;;7.47;4.85;;;21.50;99.90;;;;;;5089504;28;20024;-72
2021/11/04 03:05:13;;;;;;;6.68;5.85;;;21.50;99.90;;;;;;5091610;28;20031;-70
2021/11/04 03:07:40;;;;;;;7.55;5.57;;;21.50;99.90;;;;;;5090668;28;20267;-69
2021/11/04 03:10:08;;;;;;;7.28;5.78;;;21.40;99.90;;;;;;5090436;28;20077;-69
2021/11/04 03:12:35;;;;;;;8.27;6.07;;;21.40;99.90;;;;;;5091276;28;20028;-72
2021/11/04 03:15:02;;;;;;;7.85;6.55;;;21.30;99.90;;;;;;5090312;28;20078;-69
2021/11/04 03:17:30;;;;;;;8.00;5.60;;;21.10;99.90;;;;;;5090654;28;20046;-69
2021/11/04 03:19:57;;;;;;;9.50;6.20;;;20.90;99.90;;;;;;5089656;28;20081;-70
2021/11/04 03:22:24;;;;;;;10.38;6.47;;;20.90;99.90;;;;;;5091055;28;20030;-69
2021/11/04 03:24:52;;;;;;;9.40;5.97;;;20.80;99.90;;;;;;5089320;28;20389;-70
2021/11/04 03:27:19;;;;;;;13.68;6.90;;;20.70;99.90;;;;;;5090183;28;20027;-69
2021/11/04 03:29:47;;;;;;;13.00;6.88;;;20.70;99.90;;;;;;5090778;28;20031;-70
2021/11/04 03:32:20;;;;;;;9.65;7.03;;;20.70;99.90;;;;;;5090161;28;20032;-69
2021/11/04 03:34:48;;;;;;;10.65;6.57;;;20.60;99.90;;;;;;5090959;28;20307;-70
2021/11/04 03:37:15;;;;;;;10.55;6.78;;;20.70;99.90;;;;;;5089969;28;20057;-70
2021/11/04 03:39:44;;;;;;;8.43;6.18;;;20.60;99.90;;;;;;5067312;28;20020;-73
2021/11/04 03:42:12;;;;;;;14.20;7.22;;;20.60;99.90;;;;;;5086580;28;20039;-73
2021/11/04 03:44:42;;;;;;;9.13;7.05;;;20.60;99.90;;;;;;5088578;28;20918;-67
2021/11/04 03:47:10;;;;;;;12.45;7.88;;;20.70;99.90;;;;;;5090347;28;20024;-71
2021/11/04 03:49:38;;;;;;;9.70;7.78;;;20.70;99.90;;;;;;5093538;28;20032;-73
2021/11/04 03:52:05;;;;;;;9.75;7.05;;;20.70;99.90;;;;;;5091125;28;20439;-68
2021/11/04 03:54:33;;;;;;;10.07;7.13;;;20.70;99.90;;;;;;5091356;28;20093;-73
2021/11/04 03:57:00;;;;;;;11.07;8.43;;;20.60;99.90;;;;;;5091569;28;20401;-71
2021/11/04 03:59:28;;;;;;;9.55;7.25;;;20.60;99.90;;;;;;5091516;28;20031;-70
2021/11/04 04:01:55;;;;;;;15.98;8.20;;;20.40;99.90;;;;;;5090130;28;20031;-67
2021/11/04 04:04:22;;;;;;;14.65;9.68;;;20.40;99.90;;;;;;5089921;28;20485;-67
2021/11/04 04:06:54;;;;;;;15.27;9.52;;;20.30;99.90;;;;;;5090099;28;20099;-70
2021/11/04 04:09:23;;;;;;;13.32;8.07;;;20.30;99.90;;;;;;5090209;28;20049;-72
2021/11/04 04:11:52;;;;;;;12.93;10.13;;;20.20;99.90;;;;;;4386208;28;10000684;-69
2021/11/04 04:14:20;;;;;;;18.88;10.07;;;20.30;99.90;;;;;;5087599;28;20363;-68
2021/11/04 04:16:47;;;;;;;12.18;9.27;;;20.30;99.90;;;;;;5087951;28;20028;-69
2021/11/04 04:19:14;;;;;;;12.05;8.30;;;20.40;99.90;;;;;;5086061;28;20019;-67
2021/11/04 04:21:42;;;;;;;12.07;9.43;;;20.40;99.90;;;;;;5085183;28;20085;-68
2021/11/04 04:24:09;;;;;;;11.30;8.52;;;20.40;99.90;;;;;;5086734;28;20510;-69
2021/11/04 04:26:36;;;;;;;11.52;7.32;;;20.40;99.90;;;;;;5086953;28;20525;-69
2021/11/04 04:29:03;;;;;;;13.07;8.80;;;20.30;99.90;;;;;;5087209;28;20061;-68
2021/11/04 04:31:30;;;;;;;13.82;10.80;;;20.40;99.90;;;;;;5086869;28;20054;-69
2021/11/04 04:33:57;;;;;;;14.80;10.52;;;20.40;99.90;;;;;;5088196;28;20028;-67
2021/11/04 04:36:24;;;;;;;14.63;10.35;;;20.50;99.90;;;;;;5087866;28;20486;-69
2021/11/04 04:38:51;;;;;;;15.85;9.85;;;20.50;99.90;;;;;;5085900;28;20436;-69
2021/11/04 04:41:18;;;;;;;11.68;8.68;;;20.50;99.90;;;;;;5085941;28;21340;-69
2021/11/04 04:43:45;;;;;;;15.88;9.98;;;20.50;99.90;;;;;;5086986;28;20019;-69
2021/11/04 04:46:12;;;;;;;12.82;9.88;;;20.40;99.90;;;;;;5087107;28;20033;-68
2021/11/04 04:48:38;;;;;;;12.48;9.93;;;20.30;99.90;;;;;;5083252;28;20055;-68
2021/11/04 04:51:06;;;;;;;18.33;11.00;;;20.30;99.90;;;;;;5084040;28;20154;-67
2021/11/04 04:53:33;;;;;;;15.75;12.25;;;20.40;99.90;;;;;;5086042;28;20108;-69
2021/11/04 04:56:00;;;;;;;20.90;13.10;;;20.50;99.90;;;;;;5088929;28;20090;-68
2021/11/04 04:58:27;;;;;;;18.52;15.55;;;20.60;99.90;;;;;;5085692;28;20438;-67
2021/11/04 05:00:54;;;;;;;11.65;8.30;;;20.60;99.90;;;;;;5082552;28;20028;-66
2021/11/04 05:03:21;;;;;;;11.50;8.50;;;20.70;99.90;;;;;;5088264;28;20402;-66
2021/11/04 05:05:48;;;;;;;11.77;7.30;;;20.70;99.90;;;;;;5091562;28;20472;-67
2021/11/04 05:08:15;;;;;;;14.23;7.25;;;20.60;99.90;;;;;;5091924;28;20050;-67
2021/11/04 05:10:42;;;;;;;12.60;7.75;;;20.50;99.90;;;;;;5064838;28;20039;-68
2021/11/04 05:13:09;;;;;;;12.55;7.40;;;20.50;99.90;;;;;;5087909;28;20031;-70
2021/11/04 05:15:38;;;;;;;7.38;5.35;;;20.60;99.90;;;;;;5074720;28;20036;-71
2021/11/04 05:18:07;;;;;;;8.70;4.65;;;20.50;99.90;;;;;;5089851;28;20031;-70
2021/11/04 05:20:36;;;;;;;5.97;3.78;;;20.50;99.90;;;;;;5089864;28;20042;-69
2021/11/04 05:23:03;;;;;;;6.68;4.30;;;20.50;99.90;;;;;;5085960;28;20482;-69
2021/11/04 05:25:30;;;;;;;5.40;4.10;;;20.60;99.90;;;;;;5091859;28;20047;-69
2021/11/04 05:27:57;;;;;;;6.80;4.10;;;20.60;99.90;;;;;;5091640;28;20427;-69
2021/11/04 05:30:24;;;;;;;9.65;3.83;;;20.60;99.90;;;;;;5093673;28;20019;-72
2021/11/04 05:32:51;;;;;;;9.35;4.43;;;20.50;99.90;;;;;;5089115;28;20493;-71
2021/11/04 05:35:18;;;;;;;8.82;4.38;;;20.40;99.90;;;;;;5090844;28;20055;-71
2021/11/04 05:37:46;;;;;;;6.82;3.35;;;20.30;99.90;;;;;;5089416;28;20037;-72
2021/11/04 05:40:14;;;;;;;6.90;2.85;;;20.30;99.90;;;;;;5090928;28;20020;-71
2021/11/04 05:42:41;;;;;;;5.30;2.00;;;20.30;99.90;;;;;;5087681;28;20039;-70
2021/11/04 05:45:09;;;;;;;3.80;1.70;;;20.30;99.90;;;;;;5090478;28;20119;-72
2021/11/04 05:47:36;;;;;;;5.75;1.90;;;20.20;99.90;;;;;;5087739;28;20033;-71
2021/11/04 05:50:03;;;;;;;7.45;1.60;;;20.20;99.90;;;;;;5089472;28;20034;-73
2021/11/04 05:52:30;;;;;;;4.88;1.60;;;20.10;99.90;;;;;;5085993;28;20044;-70
2021/11/04 05:54:57;;;;;;;3.00;1.60;;;20.10;99.90;;;;;;5083973;28;20758;-72
2021/11/04 05:57:25;;;;;;;2.30;1.42;;;20.10;99.90;;;;;;5084000;28;20040;-71
2021/11/04 05:59:53;;;;;;;3.70;1.70;;;20.20;99.90;;;;;;5082932;28;20024;-72
2021/11/04 06:02:21;;;;;;;3.25;1.88;;;20.20;99.90;;;;;;5083783;28;20039;-70
2021/11/04 06:04:48;;;;;;;4.03;1.80;;;20.10;99.90;;;;;;5063246;28;20119;-71
2021/11/04 06:07:15;;;;;;;5.65;2.10;;;20.20;99.90;;;;;;5083765;28;21217;-71
2021/11/04 06:09:43;;;;;;;5.95;2.30;;;20.20;99.90;;;;;;5084260;28;20035;-69
2021/11/04 06:12:10;;;;;;;4.28;1.50;;;20.10;99.90;;;;;;5082586;28;20030;-69
2021/11/04 06:14:38;;;;;;;4.43;1.98;;;20.10;99.90;;;;;;5082702;28;20123;-70
2021/11/04 06:17:05;;;;;;;3.10;1.75;;;20.00;99.90;;;;;;5083847;28;20025;-69
2021/11/04 06:19:32;;;;;;;6.63;1.77;;;19.90;99.90;;;;;;5083665;28;20033;-70
2021/11/04 06:21:59;;;;;;;4.97;1.80;;;19.90;99.90;;;;;;5084442;28;20024;-70
2021/11/04 06:24:26;;;;;;;5.03;1.65;;;19.90;99.90;;;;;;5083801;28;20024;-72
2021/11/04 06:26:53;;;;;;;4.47;1.60;;;19.90;99.90;;;;;;5082811;28;20031;-72
2021/11/04 06:29:20;;;;;;;6.55;1.52;;;19.90;99.90;;;;;;5083464;28;20031;-70
2021/11/04 06:31:47;;;;;;;3.90;2.00;;;19.90;99.90;;;;;;5083905;28;20040;-70
2021/11/04 06:34:14;;;;;;;4.43;1.50;;;19.90;99.90;;;;;;5084417;28;20028;-71
2021/11/04 06:36:41;;;;;;;6.47;1.70;;;19.80;99.90;;;;;;5081808;28;20038;-70
2021/11/04 06:39:08;;;;;;;5.07;1.70;;;19.70;99.90;;;;;;5084152;28;20025;-70
2021/11/04 06:41:35;;;;;;;6.20;1.85;;;19.80;99.90;;;;;;5083237;28;20799;-67
2021/11/04 06:44:02;;;;;;;7.63;2.70;;;19.70;99.90;;;;;;5083554;28;20029;-69
2021/11/04 06:46:31;;;;;;;3.97;1.75;;;19.80;99.90;;;;;;5081894;28;20036;-71
2021/11/04 06:49:05;;;;;;;7.85;2.80;;;19.90;99.90;;;;;;5082883;28;20032;-76
2021/11/04 06:51:35;;;;;;;11.05;7.80;;;19.70;99.90;;;;;;5084385;28;20032;-71
2021/11/04 06:54:04;;;;;;;8.05;2.60;;;19.70;99.90;;;;;;5114786;22;20070;-70
2021/11/04 06:56:42;;;;;;;9.35;3.67;;;19.60;99.90;;;;;;5082070;28;20024;-74
2021/11/04 06:59:33;;;;;;;6.65;4.15;;;19.60;99.90;;;;;;5081354;28;20028;-78
2021/11/04 07:02:03;;;;;;;5.00;2.50;;;19.60;99.90;;;;;;5081572;28;20032;-72
2021/11/04 07:04:39;;;;;;;11.48;3.30;;;19.60;99.90;;;;;;5081698;28;20063;-74
2021/11/04 07:07:09;;;;;;;7.53;2.80;;;19.40;99.90;;;;;;5081551;28;20956;-74
2021/11/04 07:09:38;;;;;;;4.05;3.03;;;19.30;99.90;;;;;;5082110;28;20024;-75
2021/11/04 07:12:09;;;;;;;7.75;2.72;;;19.30;99.90;;;;;;5081004;28;20030;-73
2021/11/04 07:14:39;;;;;;;5.22;3.15;;;19.20;99.90;;;;;;5080214;28;20498;-75
2021/11/04 07:17:07;;;;;;;8.45;3.50;;;19.10;99.90;;;;;;5081272;28;20036;-74
2021/11/04 07:19:34;;;;;;;6.07;2.70;;;19.00;99.90;;;;;;5080582;28;20031;-70
2021/11/04 07:22:29;;;;;;;7.78;3.25;;;19.00;99.90;;;;;;5081719;28;20549;-72
2021/11/04 07:25:07;;;;;;;6.03;2.92;;;18.90;99.90;;;;;;5081311;28;20058;-71
2021/11/04 07:28:10;;;;;;;4.93;2.42;;;18.90;99.90;;;;;;5080436;28;20127;-70
2021/11/04 07:30:37;;;;;;;4.80;2.83;;;18.90;99.90;;;;;;5079523;28;20362;-70
2021/11/04 07:33:05;;;;;;;6.97;2.65;;;18.90;99.90;;;;;;5081215;28;20043;-70
2021/11/04 07:35:40;;;;;;;4.68;2.08;;;18.90;99.90;;;;;;5080905;28;20544;-77
2021/11/04 07:38:09;;;;;;;8.13;2.58;;;19.00;99.90;;;;;;5080382;28;20516;-75
2021/11/04 07:40:37;;;;;;;7.97;3.00;;;18.80;99.90;;;;;;5080597;28;20150;-69
2021/11/04 07:43:05;;;;;;;7.18;3.25;;;18.90;99.90;;;;;;5079569;28;20028;-71
2021/11/04 07:45:33;;;;;;;5.72;2.50;;;18.80;99.90;;;;;;5079846;28;20052;-73
2021/11/04 07:48:00;;;;;;;7.70;2.92;;;18.80;99.90;;;;;;5079553;28;20027;-73
2021/11/04 07:50:29;;;;;;;5.75;2.60;;;18.80;99.90;;;;;;5079805;28;20066;-72
2021/11/04 07:52:58;;;;;;;4.03;2.35;;;18.70;99.90;;;;;;5077650;28;20994;-73
2021/11/04 07:55:25;;;;;;;3.13;2.15;;;18.60;99.90;;;;;;5079310;28;20082;-69
2021/11/04 07:57:52;;;;;;;2.97;2.00;;;18.50;99.90;;;;;;5080189;28;20356;-71
2021/11/04 08:00:22;;;;;;;10.00;2.60;;;18.40;99.90;;;;;;5079853;28;20043;-69
2021/11/04 08:02:49;;;;;;;8.77;2.25;;;18.30;99.90;;;;;;5062421;28;20427;-70
2021/11/04 08:05:18;;;;;;;6.50;2.38;;;18.20;99.90;;;;;;5080568;28;20034;-69
2021/11/04 08:07:45;;;;;;;6.22;1.92;;;18.30;99.90;;;;;;5079511;28;20325;-70
2021/11/04 08:10:15;;;;;;;3.88;2.45;;;18.30;99.90;;;;;;5079599;28;20032;-71
2021/11/04 08:12:42;;;;;;;5.63;2.05;;;18.30;99.90;;;;;;5080351;28;20054;-71
2021/11/04 08:15:11;;;;;;;3.97;1.58;;;18.30;99.90;;;;;;5061427;28;20036;-70
2021/11/04 08:17:38;;;;;;;3.08;2.03;;;18.30;99.90;;;;;;5080268;28;20023;-69
2021/11/04 08:20:07;;;;;;;3.85;2.20;;;18.30;99.90;;;;;;5079943;28;20079;-70
2021/11/04 08:22:35;;;;;;;5.40;1.80;;;18.20;99.90;;;;;;5078787;28;20145;-70
2021/11/04 08:25:04;;;;;;;7.40;1.98;;;18.20;99.90;;;;;;5080450;28;20020;-70
2021/11/04 08:27:32;;;;;;;3.13;1.50;;;18.20;99.90;;;;;;5079168;28;20437;-70
2021/11/04 08:30:00;;;;;;;5.28;1.52;;;18.10;99.90;;;;;;5079058;28;20390;-68
2021/11/04 08:32:27;;;;;;;5.40;2.13;;;18.10;99.90;;;;;;5079625;28;20040;-69
2021/11/04 08:34:54;;;;;;;4.28;1.95;;;18.00;99.90;;;;;;5060531;28;20715;-71
2021/11/04 08:37:21;;;;;;;4.03;1.80;;;18.00;99.90;;;;;;5079154;28;20458;-70
2021/11/04 08:39:48;;;;;;;7.47;2.08;;;18.00;99.90;;;;;;5081814;28;20123;-70
2021/11/04 08:42:16;;;;;;;6.32;2.30;;;18.00;99.90;;;;;;5084264;28;20024;-70
2021/11/04 08:44:43;;;;;;;5.55;2.63;;;18.00;99.90;;;;;;5082971;28;20028;-70
2021/11/04 08:47:10;;;;;;;7.07;3.58;;;18.10;99.90;;;;;;5083799;28;20486;-72
2021/11/04 08:49:38;;;;;;;5.85;3.00;;;18.10;99.90;;;;;;5083009;28;20073;-72
2021/11/04 08:52:07;;;;;;;6.88;4.00;;;18.10;99.90;;;;;;5062025;28;20032;-71
2021/11/04 08:54:35;;;;;;;7.68;3.67;;;18.10;99.90;;;;;;5083686;28;20094;-69
2021/11/04 08:57:03;;;;;;;7.82;4.45;;;18.10;99.90;;;;;;5065392;28;20036;-74
2021/11/04 08:59:30;;;;;;;10.93;5.82;;;18.00;99.90;;;;;;5083071;28;20032;-69
2021/11/04 09:01:57;;;;;;;6.95;5.82;;;18.00;99.90;;;;;;5083687;28;20458;-73
2021/11/04 09:04:24;;;;;;;7.32;6.18;;;17.90;99.90;;;;;;5082910;28;20024;-73
2021/11/04 09:06:53;;;;;;;7.70;4.78;;;17.80;99.90;;;;;;5083423;28;20028;-70
2021/11/04 09:09:21;;;;;;;9.20;5.40;;;17.80;99.90;;;;;;5084079;28;20023;-69
2021/11/04 09:11:48;;;;;;;6.13;3.50;;;17.70;99.90;;;;;;5082609;28;20032;-69
2021/11/04 09:14:15;;;;;;;7.78;3.88;;;17.70;99.90;;;;;;5082954;28;20037;-73
2021/11/04 09:16:42;;;;;;;7.72;3.78;;;17.60;99.90;;;;;;5083354;28;20020;-73
2021/11/04 09:19:09;;;;;;;5.25;3.47;;;17.60;99.90;;;;;;5083505;28;20443;-75
2021/11/04 09:21:37;;;;;;;5.82;3.40;;;17.60;99.90;;;;;;5082321;28;20115;-69
2021/11/04 09:24:04;;;;;;;5.05;3.35;;;17.60;99.90;;;;;;5083444;28;20497;-75
2021/11/04 09:26:32;;;;;;;4.70;3.50;;;17.60;99.90;;;;;;5064641;28;20403;-67
2021/11/04 09:28:58;;;;;;;7.47;3.72;;;17.50;99.90;;;;;;5082208;28;20036;-68
2021/11/04 09:31:25;;;;;;;5.70;3.75;;;17.50;99.90;;;;;;5082567;28;20494;-68
2021/11/04 09:33:57;;;;;;;6.60;3.70;;;17.50;99.90;;;;;;5083172;28;20672;-69
2021/11/04 09:36:28;;;;;;;5.82;3.38;;;17.40;99.90;;;;;;5083250;28;20028;-67
2021/11/04 09:38:58;;;;;;;6.20;3.25;;;17.40;99.90;;;;;;5062358;28;20062;-67
2021/11/04 09:41:26;;;;;;;4.97;3.03;;;17.40;99.90;;;;;;5079781;28;20035;-74
2021/11/04 09:43:56;;;;;;;5.45;3.17;;;17.40;99.90;;;;;;5079954;28;20028;-66
2021/11/04 09:46:24;;;;;;;4.60;2.85;;;17.30;99.90;;;;;;5080855;28;20560;-72
2021/11/04 09:48:52;;;;;;;7.93;3.00;;;17.40;99.90;;;;;;5079681;28;20032;-66
2021/11/04 09:51:19;;;;;;;6.47;2.83;;;17.30;99.90;;;;;;5079266;28;20027;-65
2021/11/04 09:53:48;;;;;;;4.07;2.42;;;17.30;99.90;;;;;;5078405;28;20052;-74
2021/11/04 09:56:16;;;;;;;7.13;2.92;;;17.40;99.90;;;;;;5080343;28;20062;-69
2021/11/04 09:58:44;;;;;;;4.32;2.70;;;17.40;99.90;;;;;;5080015;28;20216;-69
2021/11/04 10:01:18;;;;;;;4.95;3.15;;;17.30;99.90;;;;;;5077381;28;20573;-68
2021/11/04 10:03:47;;;;;;;7.30;3.42;;;17.20;99.90;;;;;;5080186;28;20066;-69
2021/11/04 10:06:26;;;;;;;6.28;3.90;;;17.20;99.90;;;;;;5080158;28;20028;-69
2021/11/04 10:08:58;;;;;;;5.68;3.00;;;17.10;99.90;;;;;;5080524;28;20128;-74
2021/11/04 10:11:29;;;;;;;4.45;2.83;;;17.10;99.90;;;;;;5079229;28;20090;-68
2021/11/04 10:14:10;;;;;;;7.75;3.20;;;17.20;99.90;;;;;;5079700;28;20054;-73
2021/11/04 10:16:38;;;;;;;7.30;3.25;;;17.30;99.90;;;;;;5081211;28;20028;-68
2021/11/04 10:19:07;;;;;;;6.50;3.22;;;17.40;99.90;;;;;;5081139;28;20027;-74
2021/11/04 10:21:36;;;;;;;10.10;3.42;;;17.50;99.90;;;;;;5080364;28;20028;-73
2021/11/04 10:24:08;;;;;;;8.63;3.58;;;17.50;99.90;;;;;;5078852;28;20028;-66
2021/11/04 10:26:39;;;;;;;4.97;3.72;;;17.60;99.90;;;;;;5082921;28;20031;-66
2021/11/04 10:29:10;;;;;;;5.03;3.72;;;17.70;99.90;;;;;;5083146;28;20461;-69
2021/11/04 10:31:48;;;;;;;4.15;3.22;;;17.70;99.90;;;;;;5083616;28;20052;-67
2021/11/04 10:34:27;;;;;;;6.15;2.90;;;17.50;99.90;;;;;;5082937;28;20642;-67
2021/11/04 10:36:56;;;;;;;5.78;3.83;;;17.40;99.90;;;;;;5063973;28;20657;-68
2021/11/04 10:39:29;;;;;;;7.25;4.13;;;17.40;99.90;;;;;;5082802;28;20024;-72
2021/11/04 10:41:57;;;;;;;5.93;3.70;;;17.40;99.90;;;;;;5083542;28;20023;-67
2021/11/04 10:44:24;;;;;;;8.50;4.13;;;17.40;99.90;;;;;;5082214;28;20052;-67
2021/11/04 10:46:54;;;;;;;6.63;4.28;;;17.30;99.90;;;;;;5082255;28;20486;-65
2021/11/04 10:49:25;;;;;;;6.90;4.22;;;17.20;99.90;;;;;;5081852;28;20035;-73
2021/11/04 10:52:11;;;;;;;7.45;4.60;;;17.20;99.90;;;;;;5080811;28;20694;-73
2021/11/04 10:54:57;;;;;;;8.05;4.03;;;17.20;99.90;;;;;;5084989;28;20048;-65
2021/11/04 10:57:42;;;;;;;8.48;4.28;;;17.30;99.90;;;;;;5085972;28;20023;-65
2021/11/04 11:00:17;;;;;;;11.48;6.32;;;17.30;99.90;;;;;;5086072;28;20039;-72
2021/11/04 11:03:02;;;;;;;8.80;6.82;;;17.40;99.90;;;;;;4732516;28;10000522;-73
2021/11/04 11:05:31;;;;;;;10.75;8.32;;;17.50;99.90;;;;;;5082176;28;20310;-73
2021/11/04 11:07:59;;;;;;;10.50;8.07;;;17.50;99.90;;;;;;5081499;28;20367;-74
2021/11/04 11:10:25;;;;;;;11.13;9.00;;;17.50;99.90;;;;;;5082287;28;20137;-67
2021/11/04 11:12:52;;;;;;;10.20;8.25;;;17.50;99.90;;;;;;5082701;28;20386;-75
2021/11/04 11:15:19;;;;;;;11.30;9.70;;;17.50;99.90;;;;;;5081883;28;20024;-73
2021/11/04 11:17:47;;;;;;;15.00;10.18;;;17.50;99.90;;;;;;5082333;28;20068;-74
2021/11/04 11:20:16;;;;;;;16.50;10.35;;;17.60;99.90;;;;;;5081601;28;20059;-67
2021/11/04 11:22:44;;;;;;;12.23;10.45;;;17.50;99.90;;;;;;5082394;28;20016;-68
2021/11/04 11:25:12;;;;;;;14.48;10.45;;;17.60;99.90;;;;;;5081589;28;20479;-67
2021/11/04 11:27:39;;;;;;;11.23;10.07;;;17.60;99.90;;;;;;5081370;28;20561;-68
2021/11/04 11:30:12;;;;;;;14.82;9.85;;;17.50;99.90;;;;;;5063911;28;20028;-74
2021/11/04 11:32:38;;;;;;;;;;;17.50;99.90;;;;;;5082576;28;20553;-74
2021/11/04 11:35:25;;;;;;;13.35;10.75;;;17.60;99.90;;;;;;5081580;28;20596;-68
2021/11/04 11:38:10;;;;;;;15.20;10.27;;;17.60;99.90;;;;;;5080592;28;20028;-68
2021/11/04 11:40:37;;;;;;;12.82;11.30;;;17.50;99.90;;;;;;5081898;28;20082;-73
2021/11/04 11:43:09;;;;;;;19.10;12.05;;;17.50;99.90;;;;;;5080457;28;20063;-73
2021/11/04 11:45:39;;;;;;;12.80;10.93;;;17.40;99.90;;;;;;5082338;28;20096;-73
2021/11/04 11:48:15;;;;;;;16.40;10.75;;;17.40;99.90;;;;;;5081720;28;20463;-73
2021/11/04 11:50:44;;;;;;;20.17;11.80;;;17.50;99.90;;;;;;5081280;28;20048;-68
2021/11/04 11:53:25;;;;;;;16.98;11.30;;;17.60;99.90;;;;;;5078661;28;20039;-68
2021/11/04 11:55:55;;;;;;;11.68;9.95;;;17.40;99.90;;;;;;5081658;28;20165;-74
2021/11/04 11:58:36;;;;;;;16.77;10.35;;;17.40;99.90;;;;;;5082987;28;20067;-72
2021/11/04 12:01:41;;;;;;;12.43;11.05;;;17.30;99.90;;;;;;5084957;28;20115;-71
2021/11/04 12:04:23;;;;;;;13.18;10.55;;;17.20;99.90;;;;;;5065682;28;20115;-68
2021/11/04 12:06:53;;;;;;;12.40;11.02;;;17.30;99.90;;;;;;5084565;28;20081;-68
2021/11/04 12:09:40;;;;;;;13.45;11.98;;;17.30;99.90;;;;;;5084692;28;20044;-68
2021/11/04 12:12:09;;;;;;;15.15;11.65;;;17.20;99.90;;;;;;5084449;28;20024;-71
2021/11/04 12:14:37;;;;;;;13.65;12.00;;;17.20;99.90;;;;;;5084548;28;20038;-70
2021/11/04 12:17:05;;;;;;;14.60;11.73;;;17.10;99.90;;;;;;5084396;28;20043;-71
2021/11/04 12:19:52;;;;;;;12.40;10.65;;;17.10;99.90;;;;;;5084458;28;20012;-70
2021/11/04 12:22:19;;;;;;;14.02;9.50;;;17.20;99.90;;;;;;5083537;28;20266;-68
2021/11/04 12:24:51;;;;;;;12.45;10.27;;;17.20;99.90;;;;;;5084464;28;20020;-71
2021/11/04 12:27:21;;;;;;;14.82;9.23;;;17.10;99.90;;;;;;5084223;28;20023;-68
2021/11/04 12:29:49;;;;;;;10.50;8.35;;;17.10;99.90;;;;;;5084647;28;20028;-67
2021/11/04 12:32:17;;;;;;;10.77;8.57;;;17.00;99.90;;;;;;5083719;28;20032;-70
2021/11/04 12:35:00;;;;;;;13.60;8.13;;;17.00;99.90;;;;;;5083807;28;20036;-68
2021/11/04 12:37:29;;;;;;;9.98;6.93;;;17.00;99.90;;;;;;5084526;28;20036;-70
2021/11/04 12:39:59;;;;;;;13.02;6.68;;;17.00;99.90;;;;;;5084506;28;20111;-68
2021/11/04 12:42:26;;;;;;;10.00;5.82;;;17.00;99.90;;;;;;5083554;28;20078;-70
2021/11/04 12:44:54;;;;;;;7.68;5.22;;;17.00;99.90;;;;;;5084566;28;20032;-68
2021/11/04 12:47:29;;;;;;;5.43;4.65;;;16.90;99.90;;;;;;5084274;28;20520;-71
2021/11/04 12:49:56;;;;;;;5.00;4.28;;;16.90;99.90;;;;;;5084394;28;20032;-68
2021/11/04 12:52:27;;;;;;;5.38;4.40;;;16.80;99.90;;;;;;5082337;28;20039;-68
2021/11/04 12:54:56;;;;;;;6.47;4.30;;;16.80;99.90;;;;;;5083967;28;20048;-69